»·PEaware :: N6233G KSEE-KPSP

N6233G :: KSEE-KPSP

FLIGHT INFORMATION

Flight Status: Arrived
Operator: Privately registered:
United States
More flights under this callsign
Pilot: Mark B. (9455)
Aircraft: BEECH AIRCRAFT DEBONAIR BONANZA
(BE33)
More flights by this aircraft type
Origin: KSEE Gillespie
United States
Destination: KPSP Palm Springs Intl
United States
More flights between these airports :: More routes between these airports
Route: +JLI V208 TRM
File this flight plan on PilotEdge
Remarks: +CW /
Altitude:
(Current/Filed)
9,000ft
Speed:
(Current/Filed)
160kts
Departed: 20-Apr-20 08:12 PM
Arrived: 20-Apr-20 09:14 PM
Distance/Time
Traveled:
65nm/1:02
Distance/Time
To Go:
Arrived

Flight Plot

Page will automatically refresh every two minutes.


Map Options




Map Legend


Flown Route
Filed Route
Departure Airport
Arrival Airport
Navaid (VOR, NDB)
Fix

Horizontal Profiles

Position Reports

Time Latitude Longitude Heading Altitude Ground
Speed
20-Apr-20 19:55 32.824790 -116.969705 14 378ft 0kts
20-Apr-20 19:56 32.824790 -116.969705 14 378ft 0kts
20-Apr-20 19:57 32.824790 -116.969705 14 378ft 0kts
20-Apr-20 19:58 32.824790 -116.969705 14 378ft 0kts
20-Apr-20 19:59 32.824790 -116.969705 14 378ft 0kts
20-Apr-20 19:59 32.824790 -116.969705 14 378ft 0kts
20-Apr-20 20:00 32.824790 -116.969705 14 378ft 0kts
20-Apr-20 20:02 32.824790 -116.969705 14 378ft 0kts
20-Apr-20 20:02 32.824790 -116.969705 14 378ft 0kts
20-Apr-20 20:03 32.824881 -116.969603 59 378ft 5kts
20-Apr-20 20:04 32.824900 -116.965699 95 386ft 9kts
20-Apr-20 20:05 32.825072 -116.964061 354 391ft 0kts
20-Apr-20 20:06 32.825072 -116.964061 354 391ft 0kts
20-Apr-20 20:07 32.825072 -116.964061 354 391ft 0kts
20-Apr-20 20:08 32.825072 -116.964061 354 391ft 0kts
20-Apr-20 20:09 32.825072 -116.964061 354 391ft 0kts
20-Apr-20 20:10 32.825735 -116.964302 340 392ft 0kts
20-Apr-20 20:11 32.826803 -116.966549 280 385ft 52kts
20-Apr-20 20:12 32.832060 -116.990579 289 1157ft 79kts
20-Apr-20 20:13 32.848720 -117.006691 352 2123ft 87kts
20-Apr-20 20:14 32.872845 -117.009699 355 3093ft 91kts
20-Apr-20 20:15 32.898392 -117.012211 352 4064ft 94kts
20-Apr-20 20:16 32.920765 -117.004702 64 4823ft 110kts
20-Apr-20 20:17 32.931828 -116.974433 60 5840ft 98kts
20-Apr-20 20:18 32.946338 -116.947532 56 6661ft 98kts
20-Apr-20 20:19 32.961116 -116.920232 57 7450ft 98kts
20-Apr-20 20:20 32.975585 -116.893325 57 8176ft 97kts
20-Apr-20 20:21 32.989521 -116.867629 57 8827ft 96kts
20-Apr-20 20:22 33.004143 -116.839892 58 9066ft 130kts
20-Apr-20 20:23 33.021890 -116.806078 57 8932ft 165kts
20-Apr-20 20:24 33.042998 -116.767130 57 8934ft 175kts
20-Apr-20 20:25 33.063494 -116.729019 57 8932ft 178kts
20-Apr-20 20:26 33.083974 -116.690779 57 8933ft 181kts
20-Apr-20 20:27 33.104394 -116.652420 57 8932ft 182kts
20-Apr-20 20:28 33.124702 -116.614333 57 8932ft 182kts
20-Apr-20 20:29 33.147672 -116.578859 32 8937ft 182kts
20-Apr-20 20:30 33.175500 -116.554792 36 8931ft 183kts
20-Apr-20 20:31 33.203294 -116.530324 36 8932ft 183kts
20-Apr-20 20:32 33.231402 -116.505801 36 8932ft 183kts
20-Apr-20 20:33 33.258332 -116.482173 36 8933ft 182kts
20-Apr-20 20:34 33.285547 -116.458497 35 8932ft 183kts
20-Apr-20 20:35 33.313743 -116.433826 36 8932ft 183kts
20-Apr-20 20:36 33.342415 -116.409277 35 8932ft 183kts
20-Apr-20 20:37 33.370869 -116.384666 35 8932ft 183kts
20-Apr-20 20:38 33.397758 -116.361362 36 8932ft 183kts
20-Apr-20 20:39 33.425900 -116.336648 36 8930ft 183kts
20-Apr-20 20:40 33.454791 -116.311179 35 8932ft 183kts
20-Apr-20 20:41 33.481932 -116.287659 36 8933ft 183kts
20-Apr-20 20:42 33.513071 -116.260144 35 8932ft 183kts
20-Apr-20 20:43 33.543466 -116.233493 36 8932ft 183kts
20-Apr-20 20:44 33.571955 -116.208959 35 8815ft 141kts
20-Apr-20 20:45 33.590300 -116.183264 38 8102ft 135kts
20-Apr-20 20:46 33.615067 -116.169869 15 6876ft 175kts
20-Apr-20 20:47 33.643877 -116.159628 13 6036ft 176kts
20-Apr-20 20:48 33.656711 -116.129486 110 5424ft 153kts
20-Apr-20 20:49 33.639502 -116.107764 145 5100ft 135kts
20-Apr-20 20:50 33.613916 -116.099832 201 4468ft 141kts
20-Apr-20 20:51 33.613399 -116.139085 312 3838ft 110kts
20-Apr-20 20:52 33.633372 -116.158227 296 3953ft 68kts
20-Apr-20 20:53 33.636742 -116.181244 290 4116ft 64kts
20-Apr-20 20:54 33.656753 -116.208633 319 3588ft 121kts
20-Apr-20 20:55 33.683594 -116.235824 310 2071ft 133kts
20-Apr-20 20:56 33.699042 -116.262688 301 1763ft 98kts
20-Apr-20 20:57 33.709122 -116.281181 306 1921ft 97kts
20-Apr-20 20:58 33.718994 -116.301028 291 2221ft 72kts
20-Apr-20 20:59 33.728604 -116.321760 293 2528ft 69kts
20-Apr-20 21:00 33.737868 -116.344300 305 2683ft 94kts
20-Apr-20 21:01 33.752841 -116.367705 304 3076ft 86kts
20-Apr-20 21:02 33.770626 -116.396990 307 2839ft 108kts
20-Apr-20 21:03 33.787308 -116.420910 315 2289ft 91kts
20-Apr-20 21:04 33.803661 -116.438109 328 1774ft 90kts
20-Apr-20 21:05 33.823222 -116.452655 322 1125ft 67kts
20-Apr-20 21:06 33.836954 -116.466674 288 1345ft 68kts
20-Apr-20 21:07 33.853425 -116.486696 300 1791ft 98kts
20-Apr-20 21:08 33.837104 -116.510916 217 1908ft 126kts
20-Apr-20 21:09 33.808874 -116.514222 138 1415ft 104kts
20-Apr-20 21:10 33.793136 -116.490300 90 1464ft 85kts
20-Apr-20 21:11 33.807230 -116.484372 309 466ft 74kts
20-Apr-20 21:12 33.822070 -116.500684 315 435ft 79kts
20-Apr-20 21:13 33.830929 -116.507113 27 429ft 0kts

Navigation Log

Ident Type
Flight plan parsing failed, navigation log unavailable